Time;durP1;ratioP1;P1;durP2;ratioP2;P2;SDS_P1;SDS_P2;PMS_P1;PMS_P2;Temp;Humidity;BMP_temperature;BMP_pressure;BME280_temperature;BME280_humidity;BME280_pressure;Samples;Min_cycle;Max_cycle;Signal;HPM_P1;HPM_P2
2023/04/07 00:02:17;;;;;;;6.32;3.30;;;;;;;;;;4986918;28;20034;-76
2023/04/07 00:04:42;;;;;;;6.78;2.80;;;;;;;;;;4983841;28;20754;-75
2023/04/07 00:07:07;;;;;;;8.15;3.80;;;;;;;;;;5002315;28;20646;-76
2023/04/07 00:09:33;;;;;;;7.25;3.78;;;;;;;;;;4978799;28;20061;-76
2023/04/07 00:12:01;;;;;;;5.72;3.08;;;;;;;;;;4991761;28;20451;-76
2023/04/07 00:14:26;;;;;;;6.18;3.08;;;;;;;;;;4993594;28;20112;-75
2023/04/07 00:16:52;;;;;;;4.80;2.88;;;;;;;;;;4996997;28;20546;-75
2023/04/07 00:19:17;;;;;;;7.88;3.17;;;;;;;;;;5008489;28;20026;-76
2023/04/07 00:21:43;;;;;;;7.72;3.58;;;;;;;;;;5007643;28;20040;-75
2023/04/07 00:24:08;;;;;;;6.78;3.53;;;;;;;;;;4995149;28;20029;-76
2023/04/07 00:26:34;;;;;;;7.53;3.75;;;;;;;;;;4999308;28;20109;-75
2023/04/07 00:28:59;;;;;;;7.85;3.80;;;;;;;;;;4993199;28;20104;-77
2023/04/07 00:31:25;;;;;;;7.70;3.85;;;;;;;;;;4991442;28;20037;-76
2023/04/07 00:33:50;;;;;;;7.80;3.22;;;;;;;;;;5008923;28;20033;-76
2023/04/07 00:36:15;;;;;;;9.73;3.10;;;;;;;;;;4994496;28;20026;-75
2023/04/07 00:38:41;;;;;;;5.80;2.70;;;;;;;;;;5012136;28;20026;-76
2023/04/07 00:41:06;;;;;;;7.90;2.60;;;;;;;;;;4992623;28;20068;-76
2023/04/07 00:43:32;;;;;;;5.97;2.70;;;;;;;;;;5006338;28;20076;-75
2023/04/07 00:45:57;;;;;;;5.05;2.22;;;;;;;;;;4984530;28;20037;-75
2023/04/07 00:48:23;;;;;;;3.88;2.30;;;;;;;;;;5010352;28;20033;-76
2023/04/07 00:50:49;;;;;;;5.05;2.53;;;;;;;;;;5006147;28;20092;-75
2023/04/07 00:53:15;;;;;;;5.65;2.47;;;;;;;;;;4993406;28;20136;-76
2023/04/07 00:55:40;;;;;;;5.85;2.45;;;;;;;;;;5008582;28;20497;-76
2023/04/07 00:58:06;;;;;;;4.25;2.03;;;;;;;;;;4994063;28;20026;-76
2023/04/07 01:00:37;;;;;;;4.72;2.03;;;;;;;;;;4980233;28;20046;-76
2023/04/07 01:03:10;;;;;;;6.15;2.20;;;;;;;;;;5009086;28;20112;-75
2023/04/07 01:05:55;;;;;;;4.55;2.30;;;;;;;;;;4987619;28;20409;-75
2023/04/07 01:08:25;;;;;;;6.25;2.30;;;;;;;;;;4993435;28;20080;-75
2023/04/07 01:11:03;;;;;;;6.03;2.28;;;;;;;;;;4993869;28;20116;-76
2023/04/07 01:13:53;;;;;;;6.28;2.10;;;;;;;;;;4996742;28;20080;-75
2023/04/07 01:16:26;;;;;;;6.28;2.45;;;;;;;;;;5005248;28;20502;-76
2023/04/07 01:18:54;;;;;;;5.03;2.53;;;;;;;;;;5010087;28;20080;-75
2023/04/07 01:21:22;;;;;;;5.18;2.70;;;;;;;;;;5009234;28;20060;-75
2023/04/07 01:24:04;;;;;;;7.28;2.55;;;;;;;;;;5008350;28;20022;-76
2023/04/07 01:26:32;;;;;;;5.53;2.67;;;;;;;;;;4992574;28;20026;-75
2023/04/07 01:29:35;;;;;;;6.10;2.70;;;;;;;;;;4993040;28;20116;-75
2023/04/07 01:32:04;;;;;;;7.53;2.60;;;;;;;;;;4991715;28;20022;-76
2023/04/07 01:34:31;;;;;;;5.18;2.35;;;;;;;;;;4991239;28;20271;-75
2023/04/07 01:36:58;;;;;;;5.50;2.72;;;;;;;;;;4988894;28;20516;-75
2023/04/07 01:39:26;;;;;;;6.03;2.30;;;;;;;;;;4991250;28;20025;-75
2023/04/07 01:41:52;;;;;;;8.43;2.90;;;;;;;;;;5007452;28;20359;-75
2023/04/07 01:44:19;;;;;;;6.53;2.65;;;;;;;;;;5004169;28;20034;-76
2023/04/07 01:46:44;;;;;;;5.68;2.30;;;;;;;;;;4992267;28;20018;-76
2023/04/07 01:49:11;;;;;;;5.03;2.55;;;;;;;;;;5010985;28;20103;-76
2023/04/07 01:51:37;;;;;;;5.85;2.72;;;;;;;;;;5008559;28;20032;-75
2023/04/07 01:54:03;;;;;;;5.22;2.15;;;;;;;;;;5006949;28;20026;-75
2023/04/07 01:56:29;;;;;;;4.43;2.30;;;;;;;;;;4987327;28;20026;-75
2023/04/07 01:58:54;;;;;;;3.28;1.83;;;;;;;;;;5005017;28;20449;-76
2023/04/07 02:01:20;;;;;;;5.78;2.10;;;;;;;;;;5010278;28;20022;-75
2023/04/07 02:03:47;;;;;;;6.45;2.13;;;;;;;;;;5003990;28;20478;-75
2023/04/07 02:06:19;;;;;;;3.40;1.73;;;;;;;;;;4988147;28;20190;-75
2023/04/07 02:08:51;;;;;;;5.07;2.08;;;;;;;;;;5006977;28;20112;-75
2023/04/07 02:11:20;;;;;;;5.88;2.03;;;;;;;;;;4989458;28;20462;-75
2023/04/07 02:13:46;;;;;;;4.10;2.08;;;;;;;;;;5007906;28;20037;-76
2023/04/07 02:16:12;;;;;;;4.03;2.15;;;;;;;;;;4984683;28;20030;-75
2023/04/07 02:18:39;;;;;;;5.30;2.17;;;;;;;;;;5008882;28;20036;-75
2023/04/07 02:21:07;;;;;;;6.60;2.30;;;;;;;;;;4987936;28;20026;-75
2023/04/07 02:23:34;;;;;;;6.35;2.50;;;;;;;;;;5007553;28;20036;-75
2023/04/07 02:26:00;;;;;;;6.43;2.50;;;;;;;;;;4988345;28;20109;-75
2023/04/07 02:28:25;;;;;;;6.07;2.47;;;;;;;;;;4985725;28;20120;-75
2023/04/07 02:30:51;;;;;;;4.65;2.22;;;;;;;;;;5010260;28;20041;-75
2023/04/07 02:33:16;;;;;;;3.78;1.80;;;;;;;;;;5001541;28;20609;-76
2023/04/07 02:35:41;;;;;;;6.57;2.35;;;;;;;;;;5000907;28;20556;-76
2023/04/07 02:38:07;;;;;;;7.05;2.35;;;;;;;;;;5003571;28;20026;-75
2023/04/07 02:40:32;;;;;;;6.63;2.35;;;;;;;;;;5009157;28;20115;-75
2023/04/07 02:42:58;;;;;;;4.88;2.75;;;;;;;;;;5000203;28;20501;-76
2023/04/07 02:45:23;;;;;;;5.95;2.50;;;;;;;;;;4989016;28;20037;-75
2023/04/07 02:47:48;;;;;;;5.63;2.50;;;;;;;;;;5008851;28;20029;-76
2023/04/07 02:50:14;;;;;;;7.05;2.60;;;;;;;;;;5007675;28;20044;-75
2023/04/07 02:52:39;;;;;;;5.93;2.78;;;;;;;;;;4988080;28;20030;-76
2023/04/07 02:55:06;;;;;;;7.65;3.00;;;;;;;;;;4991363;28;20440;-75
2023/04/07 02:57:31;;;;;;;7.85;3.25;;;;;;;;;;5008377;28;20026;-75
2023/04/07 02:59:57;;;;;;;7.05;3.40;;;;;;;;;;4989242;28;20136;-75
2023/04/07 03:02:23;;;;;;;5.13;3.13;;;;;;;;;;5009972;28;20034;-75
2023/04/07 03:04:50;;;;;;;5.28;2.97;;;;;;;;;;5005725;28;20034;-75
2023/04/07 03:07:15;;;;;;;5.88;3.03;;;;;;;;;;4990190;28;20716;-76
2023/04/07 03:09:40;;;;;;;6.00;2.80;;;;;;;;;;4991051;28;20044;-75
2023/04/07 03:12:06;;;;;;;4.15;2.63;;;;;;;;;;5011420;28;20032;-75
2023/04/07 03:14:31;;;;;;;6.15;2.45;;;;;;;;;;5004800;28;20108;-75
2023/04/07 03:16:56;;;;;;;6.28;2.65;;;;;;;;;;5007988;28;20033;-75
2023/04/07 03:19:22;;;;;;;7.13;2.63;;;;;;;;;;4990459;28;20033;-76
2023/04/07 03:21:47;;;;;;;9.15;2.70;;;;;;;;;;4986592;28;21936;-76
2023/04/07 03:24:12;;;;;;;4.35;2.33;;;;;;;;;;5007829;28;20091;-76
2023/04/07 03:26:38;;;;;;;5.25;2.40;;;;;;;;;;4989032;28;20061;-76
2023/04/07 03:29:03;;;;;;;6.30;2.60;;;;;;;;;;5001385;28;20054;-75
2023/04/07 03:31:29;;;;;;;6.72;2.40;;;;;;;;;;4987965;28;20025;-75
2023/04/07 03:33:54;;;;;;;8.07;2.97;;;;;;;;;;5002637;28;20462;-75
2023/04/07 03:36:20;;;;;;;5.63;2.20;;;;;;;;;;4992702;28;20184;-75
2023/04/07 03:38:48;;;;;;;5.78;2.53;;;;;;;;;;5008605;28;20033;-77
2023/04/07 03:41:14;;;;;;;5.05;1.83;;;;;;;;;;4991812;28;20026;-76
2023/04/07 03:43:40;;;;;;;7.22;2.25;;;;;;;;;;4987341;28;20032;-76
2023/04/07 03:46:06;;;;;;;4.18;2.00;;;;;;;;;;4993337;28;20075;-75
2023/04/07 03:48:31;;;;;;;8.13;2.28;;;;;;;;;;4992416;28;20029;-76
2023/04/07 03:50:56;;;;;;;5.53;2.25;;;;;;;;;;4987226;28;20026;-75
2023/04/07 03:53:22;;;;;;;5.68;1.92;;;;;;;;;;4995318;28;20428;-75
2023/04/07 03:55:47;;;;;;;6.93;2.00;;;;;;;;;;5010968;28;20040;-75
2023/04/07 03:58:13;;;;;;;6.47;1.98;;;;;;;;;;5011110;28;20025;-75
2023/04/07 04:00:38;;;;;;;7.70;2.55;;;;;;;;;;5011081;28;20029;-76
2023/04/07 04:03:04;;;;;;;7.40;2.72;;;;;;;;;;4994375;28;20030;-75
2023/04/07 04:05:30;;;;;;;5.97;2.55;;;;;;;;;;4993730;28;20026;-75
2023/04/07 04:07:55;;;;;;;5.30;2.55;;;;;;;;;;4996269;28;20040;-75
2023/04/07 04:10:21;;;;;;;7.90;2.70;;;;;;;;;;4988124;28;20037;-75
2023/04/07 04:12:47;;;;;;;5.90;2.72;;;;;;;;;;5013427;28;20049;-75
2023/04/07 04:15:13;;;;;;;6.55;3.10;;;;;;;;;;4991519;28;20026;-75
2023/04/07 04:17:39;;;;;;;4.75;3.00;;;;;;;;;;5005353;28;20443;-75
2023/04/07 04:20:05;;;;;;;7.38;2.90;;;;;;;;;;5011393;28;20467;-75
2023/04/07 04:22:30;;;;;;;6.53;2.90;;;;;;;;;;4995068;28;20103;-76
2023/04/07 04:24:56;;;;;;;6.95;2.65;;;;;;;;;;5001796;28;20066;-77
2023/04/07 04:27:21;;;;;;;11.10;2.63;;;;;;;;;;4993008;28;20348;-76
2023/04/07 04:29:47;;;;;;;7.13;2.88;;;;;;;;;;5010667;28;20022;-75
2023/04/07 04:32:13;;;;;;;7.90;2.63;;;;;;;;;;5009519;28;20473;-75
2023/04/07 04:34:40;;;;;;;9.77;2.38;;;;;;;;;;5012353;28;20386;-75
2023/04/07 04:37:06;;;;;;;7.30;2.72;;;;;;;;;;4990061;28;20030;-75
2023/04/07 04:39:31;;;;;;;8.73;2.85;;;;;;;;;;5011427;28;20535;-74
2023/04/07 04:41:57;;;;;;;9.18;2.67;;;;;;;;;;5009624;28;20026;-76
2023/04/07 04:44:22;;;;;;;6.20;2.58;;;;;;;;;;4991749;28;20025;-75
2023/04/07 04:46:47;;;;;;;6.57;2.53;;;;;;;;;;4995943;28;20101;-75
2023/04/07 04:49:14;;;;;;;8.00;2.80;;;;;;;;;;5009147;28;20026;-75
2023/04/07 04:51:39;;;;;;;6.68;2.83;;;;;;;;;;4992105;28;20390;-75
2023/04/07 04:54:05;;;;;;;5.18;2.25;;;;;;;;;;4991967;28;20038;-75
2023/04/07 04:56:31;;;;;;;9.90;3.03;;;;;;;;;;5001652;28;20504;-75
2023/04/07 04:58:56;;;;;;;8.23;2.83;;;;;;;;;;5004645;28;20034;-75
2023/04/07 05:01:21;;;;;;;8.90;2.58;;;;;;;;;;4986183;28;20021;-75
2023/04/07 05:03:47;;;;;;;7.18;2.72;;;;;;;;;;5010035;28;20034;-76
2023/04/07 05:06:12;;;;;;;8.57;3.05;;;;;;;;;;5003579;28;20022;-76
2023/04/07 05:08:37;;;;;;;8.57;3.13;;;;;;;;;;5006355;28;20034;-75
2023/04/07 05:11:03;;;;;;;6.97;2.67;;;;;;;;;;5006410;28;20069;-75
2023/04/07 05:13:29;;;;;;;6.32;3.28;;;;;;;;;;4990273;28;20022;-75
2023/04/07 05:15:55;;;;;;;8.02;2.85;;;;;;;;;;5003374;28;20103;-75
2023/04/07 05:18:20;;;;;;;6.47;3.15;;;;;;;;;;5013002;28;20025;-76
2023/04/07 05:20:48;;;;;;;8.60;3.38;;;;;;;;;;4988428;28;20034;-76
2023/04/07 05:23:13;;;;;;;9.65;3.08;;;;;;;;;;4989072;28;20018;-75
2023/04/07 05:25:38;;;;;;;7.88;3.33;;;;;;;;;;4989534;28;20084;-75
2023/04/07 05:28:04;;;;;;;10.18;3.33;;;;;;;;;;5006288;28;20025;-75
2023/04/07 05:30:29;;;;;;;12.38;4.20;;;;;;;;;;5007720;28;20072;-75
2023/04/07 05:32:54;;;;;;;12.98;3.55;;;;;;;;;;4987957;28;20036;-75
2023/04/07 05:35:20;;;;;;;12.95;4.00;;;;;;;;;;5009783;28;20022;-76
2023/04/07 05:37:45;;;;;;;8.52;3.78;;;;;;;;;;4989438;28;20040;-77
2023/04/07 05:40:11;;;;;;;8.18;3.20;;;;;;;;;;5007716;28;20038;-75
2023/04/07 05:42:36;;;;;;;10.27;3.72;;;;;;;;;;4999962;28;20041;-75
2023/04/07 05:45:02;;;;;;;11.48;3.80;;;;;;;;;;4987601;28;20063;-75
2023/04/07 05:47:28;;;;;;;10.02;4.20;;;;;;;;;;5004967;28;20030;-76
2023/04/07 05:49:53;;;;;;;10.15;3.85;;;;;;;;;;5009246;28;20017;-75
2023/04/07 05:52:19;;;;;;;11.25;4.05;;;;;;;;;;4985887;28;20038;-75
2023/04/07 05:54:44;;;;;;;11.40;4.07;;;;;;;;;;5004420;28;20110;-76
2023/04/07 05:57:10;;;;;;;7.45;3.80;;;;;;;;;;5004222;28;20388;-75
2023/04/07 05:59:36;;;;;;;12.80;4.75;;;;;;;;;;4992373;28;20034;-76
2023/04/07 06:02:02;;;;;;;7.00;3.92;;;;;;;;;;4990361;28;20030;-75
2023/04/07 06:04:28;;;;;;;9.20;3.50;;;;;;;;;;4997698;28;20045;-75
2023/04/07 06:06:54;;;;;;;6.47;3.00;;;;;;;;;;4971976;28;20482;-75
2023/04/07 06:09:23;;;;;;;5.25;2.60;;;;;;;;;;4984683;28;20034;-75
2023/04/07 06:11:48;;;;;;;7.45;2.67;;;;;;;;;;5001655;28;20482;-75
2023/04/07 06:14:13;;;;;;;4.95;2.42;;;;;;;;;;5008488;28;20041;-75
2023/04/07 06:16:39;;;;;;;8.35;2.80;;;;;;;;;;4991051;28;20120;-75
2023/04/07 06:19:06;;;;;;;7.32;3.00;;;;;;;;;;5007260;28;20020;-75
2023/04/07 06:21:31;;;;;;;7.85;3.35;;;;;;;;;;5006260;28;20029;-76
2023/04/07 06:23:57;;;;;;;9.32;3.72;;;;;;;;;;5008478;28;20029;-75
2023/04/07 06:26:22;;;;;;;11.48;4.90;;;;;;;;;;4987588;28;20445;-76
2023/04/07 06:28:48;;;;;;;10.55;5.03;;;;;;;;;;5007135;28;20044;-76
2023/04/07 06:31:13;;;;;;;7.82;4.75;;;;;;;;;;4992500;28;20027;-76
2023/04/07 06:33:38;;;;;;;11.98;5.03;;;;;;;;;;4995937;28;20863;-75
2023/04/07 06:36:04;;;;;;;11.00;5.53;;;;;;;;;;4991880;28;20053;-76
2023/04/07 06:38:30;;;;;;;10.35;6.10;;;;;;;;;;4986169;28;20025;-76
2023/04/07 06:40:55;;;;;;;10.95;5.50;;;;;;;;;;4980121;28;20080;-76
2023/04/07 06:43:21;;;;;;;9.85;6.10;;;;;;;;;;4985814;28;20041;-76
2023/04/07 06:45:46;;;;;;;10.30;4.88;;;;;;;;;;4987819;28;20113;-75
2023/04/07 06:48:11;;;;;;;9.77;4.07;;;;;;;;;;4991454;28;20029;-76
2023/04/07 06:50:37;;;;;;;8.00;4.53;;;;;;;;;;4996968;28;20040;-74
2023/04/07 06:53:03;;;;;;;8.85;3.50;;;;;;;;;;4998708;28;20084;-75
2023/04/07 06:55:28;;;;;;;6.97;3.00;;;;;;;;;;4990278;28;20076;-76
2023/04/07 06:57:54;;;;;;;7.97;2.70;;;;;;;;;;5010748;28;20492;-74
2023/04/07 07:00:21;;;;;;;7.10;2.70;;;;;;;;;;5008380;28;20030;-76
2023/04/07 07:02:47;;;;;;;6.35;2.33;;;;;;;;;;4989111;28;20117;-75
2023/04/07 07:05:12;;;;;;;5.47;2.60;;;;;;;;;;4991732;28;20113;-75
2023/04/07 07:07:38;;;;;;;5.97;2.30;;;;;;;;;;5009999;28;20033;-75
2023/04/07 07:10:04;;;;;;;3.67;1.83;;;;;;;;;;5008755;28;20029;-75
2023/04/07 07:12:29;;;;;;;8.25;2.53;;;;;;;;;;5006762;28;20033;-75
2023/04/07 07:14:55;;;;;;;4.03;2.13;;;;;;;;;;5007220;28;20042;-74
2023/04/07 07:17:20;;;;;;;6.82;2.20;;;;;;;;;;5008175;28;20022;-75
2023/04/07 07:19:45;;;;;;;6.20;2.20;;;;;;;;;;4988413;28;20179;-75
2023/04/07 07:22:11;;;;;;;5.18;2.40;;;;;;;;;;4995461;28;20026;-75
2023/04/07 07:24:36;;;;;;;4.78;2.33;;;;;;;;;;5010180;28;20125;-76
2023/04/07 07:27:02;;;;;;;5.60;2.33;;;;;;;;;;5011357;28;20394;-75
2023/04/07 07:29:27;;;;;;;6.88;2.10;;;;;;;;;;5010563;28;20041;-75
2023/04/07 07:31:53;;;;;;;6.03;2.47;;;;;;;;;;4989596;28;20053;-74
2023/04/07 07:34:18;;;;;;;6.78;2.42;;;;;;;;;;5013606;28;20084;-75
2023/04/07 07:36:43;;;;;;;5.50;2.63;;;;;;;;;;5011293;28;20042;-75
2023/04/07 07:39:09;;;;;;;8.52;2.75;;;;;;;;;;5011617;28;20061;-76
2023/04/07 07:41:35;;;;;;;6.95;3.13;;;;;;;;;;5012744;28;20022;-75
2023/04/07 07:44:00;;;;;;;5.97;2.70;;;;;;;;;;4993656;28;20028;-75
2023/04/07 07:46:26;;;;;;;6.57;3.10;;;;;;;;;;4996765;28;20026;-75
2023/04/07 07:48:51;;;;;;;8.55;3.58;;;;;;;;;;4993974;28;20029;-75
2023/04/07 07:51:17;;;;;;;6.80;3.10;;;;;;;;;;4986566;28;20087;-75
2023/04/07 07:53:44;;;;;;;6.65;2.72;;;;;;;;;;5002864;28;20021;-76
2023/04/07 07:56:09;;;;;;;7.78;3.15;;;;;;;;;;4994603;28;20033;-76
2023/04/07 07:58:35;;;;;;;6.68;3.22;;;;;;;;;;4991025;28;20026;-75
2023/04/07 08:01:00;;;;;;;5.00;2.70;;;;;;;;;;5008235;28;20478;-75
2023/04/07 08:03:26;;;;;;;6.78;3.17;;;;;;;;;;5010774;28;20409;-75
2023/04/07 08:05:51;;;;;;;6.05;3.30;;;;;;;;;;5012804;28;20049;-75
2023/04/07 08:08:16;;;;;;;6.88;3.20;;;;;;;;;;5008827;28;20030;-75
2023/04/07 08:10:42;;;;;;;5.65;2.65;;;;;;;;;;5011785;28;20030;-75
2023/04/07 08:13:07;;;;;;;6.40;2.78;;;;;;;;;;4997080;28;20031;-75
2023/04/07 08:15:32;;;;;;;4.40;2.40;;;;;;;;;;5012380;28;20042;-75
2023/04/07 08:17:59;;;;;;;5.60;2.50;;;;;;;;;;4994896;28;20037;-75
2023/04/07 08:20:25;;;;;;;6.80;2.63;;;;;;;;;;5006923;28;20061;-75
2023/04/07 08:22:51;;;;;;;5.93;2.85;;;;;;;;;;5008706;28;20568;-75
2023/04/07 08:25:16;;;;;;;5.18;2.50;;;;;;;;;;5011119;28;20049;-75
2023/04/07 08:27:42;;;;;;;11.20;2.83;;;;;;;;;;4995894;28;20026;-75
2023/04/07 08:30:07;;;;;;;5.72;2.85;;;;;;;;;;4990096;28;20033;-75
2023/04/07 08:32:43;;;;;;;8.68;2.85;;;;;;;;;;5008871;28;20030;-75
2023/04/07 08:35:10;;;;;;;9.93;3.13;;;;;;;;;;5008657;28;20032;-75
2023/04/07 08:37:36;;;;;;;6.50;3.05;;;;;;;;;;5008478;28;20026;-75
2023/04/07 08:40:03;;;;;;;7.70;2.80;;;;;;;;;;5009457;28;20029;-74
2023/04/07 08:42:31;;;;;;;6.80;2.90;;;;;;;;;;5006090;28;20057;-75
2023/04/07 08:44:57;;;;;;;8.48;2.90;;;;;;;;;;5009479;28;20033;-76
2023/04/07 08:47:25;;;;;;;11.75;3.50;;;;;;;;;;5011993;28;20112;-75
2023/04/07 08:49:52;;;;;;;9.10;3.17;;;;;;;;;;5012530;28;20065;-75
2023/04/07 08:52:21;;;;;;;7.75;3.10;;;;;;;;;;4996340;28;20435;-75
2023/04/07 08:54:48;;;;;;;6.93;2.88;;;;;;;;;;4987837;28;20030;-75
2023/04/07 08:57:15;;;;;;;7.78;3.10;;;;;;;;;;4995852;28;20485;-75
2023/04/07 08:59:43;;;;;;;9.68;3.45;;;;;;;;;;5012129;28;20462;-75
2023/04/07 09:02:09;;;;;;;8.90;3.45;;;;;;;;;;4986700;28;20026;-75
2023/04/07 09:04:34;;;;;;;8.40;3.03;;;;;;;;;;4989718;28;20053;-75
2023/04/07 09:07:00;;;;;;;9.82;3.17;;;;;;;;;;4989867;28;20037;-75
2023/04/07 09:09:26;;;;;;;9.93;3.08;;;;;;;;;;4991779;28;20037;-75
2023/04/07 09:11:51;;;;;;;6.75;2.88;;;;;;;;;;4988005;28;20375;-75
2023/04/07 09:14:19;;;;;;;8.75;3.58;;;;;;;;;;5010991;28;20037;-76
2023/04/07 09:16:46;;;;;;;7.05;3.05;;;;;;;;;;4991288;28;20026;-76
2023/04/07 09:19:11;;;;;;;6.75;2.55;;;;;;;;;;5009102;28;20041;-75
2023/04/07 09:21:48;;;;;;;8.10;3.22;;;;;;;;;;5007704;28;20387;-75
2023/04/07 09:24:26;;;;;;;7.88;3.03;;;;;;;;;;4991876;28;20033;-75
2023/04/07 09:27:12;;;;;;;8.73;3.28;;;;;;;;;;5010222;28;20050;-75
2023/04/07 09:29:40;;;;;;;6.93;2.95;;;;;;;;;;4995704;28;20060;-75
2023/04/07 09:32:05;;;;;;;6.95;3.38;;;;;;;;;;5012930;28;20987;-76
2023/04/07 09:34:33;;;;;;;10.52;3.30;;;;;;;;;;5011111;28;20121;-76
2023/04/07 09:37:00;;;;;;;8.23;3.00;;;;;;;;;;5011003;28;20022;-76
2023/04/07 09:39:26;;;;;;;7.65;2.72;;;;;;;;;;5013048;28;20108;-77
2023/04/07 09:41:51;;;;;;;7.97;2.40;;;;;;;;;;5010199;28;20577;-77
2023/04/07 09:44:21;;;;;;;8.35;2.10;;;;;;;;;;4990124;28;20061;-76
2023/04/07 09:46:58;;;;;;;6.10;2.17;;;;;;;;;;5009263;28;20026;-76
2023/04/07 09:49:24;;;;;;;7.03;2.22;;;;;;;;;;5012378;28;20496;-76
2023/04/07 09:51:57;;;;;;;6.05;2.30;;;;;;;;;;4997747;28;20137;-76
2023/04/07 09:54:36;;;;;;;4.25;1.75;;;;;;;;;;5012408;28;20030;-76
2023/04/07 09:57:03;;;;;;;10.05;2.05;;;;;;;;;;5014208;28;20030;-78
2023/04/07 09:59:30;;;;;;;6.05;1.73;;;;;;;;;;5012444;28;20087;-76
2023/04/07 10:01:56;;;;;;;9.82;1.95;;;;;;;;;;5013187;28;20382;-76
2023/04/07 10:04:23;;;;;;;6.40;2.05;;;;;;;;;;5006298;28;20468;-76
2023/04/07 10:06:49;;;;;;;7.70;1.75;;;;;;;;;;5005105;28;20488;-76
2023/04/07 10:09:15;;;;;;;4.10;1.70;;;;;;;;;;4995636;28;20036;-76
2023/04/07 10:11:41;;;;;;;6.00;1.95;;;;;;;;;;4996840;28;20129;-76
2023/04/07 10:14:08;;;;;;;5.35;1.80;;;;;;;;;;5010678;28;20089;-76
2023/04/07 10:16:36;;;;;;;6.70;2.00;;;;;;;;;;5015328;28;20781;-76
2023/04/07 10:19:02;;;;;;;4.93;1.83;;;;;;;;;;5011824;28;20091;-76
2023/04/07 10:21:27;;;;;;;8.23;1.88;;;;;;;;;;4998842;28;20029;-76
2023/04/07 10:24:08;;;;;;;4.47;1.83;;;;;;;;;;5014727;28;20022;-77
2023/04/07 10:26:35;;;;;;;4.20;2.03;;;;;;;;;;5009998;28;20029;-76
2023/04/07 10:29:08;;;;;;;8.38;2.13;;;;;;;;;;5014706;28;20089;-76
2023/04/07 10:31:36;;;;;;;;;;;;;;;;;;4996434;28;20030;-76
2023/04/07 10:34:01;;;;;;;3.38;1.60;;;;;;;;;;5006329;28;20293;-77
2023/04/07 10:36:28;;;;;;;6.20;2.03;;;;;;;;;;5010134;28;20034;-76
2023/04/07 10:39:13;;;;;;;8.98;1.92;;;;;;;;;;5017108;28;20466;-76
2023/04/07 10:41:40;;;;;;;6.88;2.25;;;;;;;;;;4998651;28;20048;-76
2023/04/07 10:44:07;;;;;;;6.32;2.22;;;;;;;;;;5011565;28;20030;-76
2023/04/07 10:47:02;;;;;;;4.93;2.22;;;;;;;;;;5013937;28;20387;-75
2023/04/07 10:49:29;;;;;;;8.23;2.17;;;;;;;;;;5015854;28;20029;-76
2023/04/07 10:52:13;;;;;;;8.80;2.25;;;;;;;;;;4987872;28;20030;-77
2023/04/07 10:54:40;;;;;;;5.05;2.20;;;;;;;;;;5011013;28;20026;-76
2023/04/07 10:57:11;;;;;;;7.82;2.00;;;;;;;;;;4991676;28;20026;-76
2023/04/07 10:59:45;;;;;;;7.18;2.35;;;;;;;;;;5007689;28;20041;-75
2023/04/07 11:02:14;;;;;;;10.70;2.58;;;;;;;;;;4998799;28;20048;-76
2023/04/07 11:04:42;;;;;;;8.40;2.60;;;;;;;;;;4992525;28;20037;-77
2023/04/07 11:07:08;;;;;;;6.65;2.78;;;;;;;;;;4993156;28;20512;-76
2023/04/07 11:09:33;;;;;;;8.80;2.80;;;;;;;;;;5012792;28;20025;-77
2023/04/07 11:11:59;;;;;;;6.63;2.45;;;;;;;;;;4998477;28;20030;-76
2023/04/07 11:14:29;;;;;;;9.10;2.90;;;;;;;;;;4997782;28;20021;-76
2023/04/07 11:16:55;;;;;;;8.18;2.55;;;;;;;;;;4988813;28;20040;-76
2023/04/07 11:19:21;;;;;;;6.57;2.03;;;;;;;;;;5015469;28;20037;-76
2023/04/07 11:21:46;;;;;;;9.18;2.53;;;;;;;;;;5013664;28;20030;-76
2023/04/07 11:24:50;;;;;;;10.68;2.50;;;;;;;;;;4996594;28;20030;-76
2023/04/07 11:27:16;;;;;;;6.93;2.42;;;;;;;;;;4957961;28;20082;-77
2023/04/07 11:29:42;;;;;;;5.57;2.30;;;;;;;;;;4956987;29;20058;-76
2023/04/07 11:32:07;;;;;;;5.85;2.55;;;;;;;;;;4984463;28;20042;-76
2023/04/07 11:34:36;;;;;;;6.43;2.33;;;;;;;;;;4996098;28;20036;-77
2023/04/07 11:37:22;;;;;;;8.45;2.35;;;;;;;;;;4998663;28;20034;-76
2023/04/07 11:39:55;;;;;;;6.50;2.42;;;;;;;;;;5016402;28;20084;-76
2023/04/07 11:42:34;;;;;;;6.40;2.45;;;;;;;;;;5011916;28;20367;-76
2023/04/07 11:45:00;;;;;;;4.90;2.05;;;;;;;;;;5010610;28;20117;-76
2023/04/07 11:47:39;;;;;;;6.43;2.38;;;;;;;;;;4998947;28;20462;-76
2023/04/07 11:50:05;;;;;;;5.18;2.25;;;;;;;;;;4996810;28;20501;-75
2023/04/07 11:52:45;;;;;;;6.68;2.22;;;;;;;;;;4991182;28;20116;-76
2023/04/07 11:55:25;;;;;;;4.72;2.17;;;;;;;;;;5010388;28;20018;-76
2023/04/07 11:57:51;;;;;;;6.90;2.13;;;;;;;;;;5011858;28;20030;-76
2023/04/07 12:00:18;;;;;;;6.50;2.00;;;;;;;;;;5015585;28;20052;-76
2023/04/07 12:02:43;;;;;;;5.05;2.13;;;;;;;;;;4997299;28;20034;-76
2023/04/07 12:05:09;;;;;;;8.20;2.78;;;;;;;;;;5010971;28;20540;-75
2023/04/07 12:07:35;;;;;;;6.82;2.30;;;;;;;;;;4998718;28;20524;-76
2023/04/07 12:10:20;;;;;;;5.75;2.03;;;;;;;;;;4997762;28;20089;-76
2023/04/07 12:12:46;;;;;;;4.07;2.22;;;;;;;;;;5014765;28;20386;-76
2023/04/07 12:15:12;;;;;;;9.95;2.58;;;;;;;;;;5010780;28;20038;-76
2023/04/07 12:17:43;;;;;;;9.23;3.08;;;;;;;;;;5013874;28;20025;-76
2023/04/07 12:20:09;;;;;;;5.90;2.72;;;;;;;;;;5006612;28;20026;-76
2023/04/07 12:22:34;;;;;;;7.80;2.55;;;;;;;;;;5015704;28;20482;-76
2023/04/07 12:24:59;;;;;;;7.50;2.60;;;;;;;;;;4995271;28;20069;-76
2023/04/07 12:27:25;;;;;;;8.65;3.22;;;;;;;;;;5001865;28;20042;-76
2023/04/07 12:29:50;;;;;;;8.80;2.95;;;;;;;;;;5003030;28;20036;-76
2023/04/07 12:32:15;;;;;;;10.63;2.90;;;;;;;;;;5016513;28;20095;-75
2023/04/07 12:34:41;;;;;;;10.05;2.83;;;;;;;;;;5020388;28;20029;-76
2023/04/07 12:37:07;;;;;;;8.30;2.70;;;;;;;;;;5003318;28;20025;-77
2023/04/07 12:39:32;;;;;;;9.77;2.85;;;;;;;;;;5019086;28;20450;-76
2023/04/07 12:41:57;;;;;;;9.93;2.60;;;;;;;;;;5018648;28;20544;-76
2023/04/07 12:44:23;;;;;;;6.18;2.60;;;;;;;;;;5016591;28;20414;-76
2023/04/07 12:46:48;;;;;;;9.63;2.83;;;;;;;;;;5002997;28;20386;-76
2023/04/07 12:49:13;;;;;;;5.55;2.58;;;;;;;;;;5022257;28;20441;-76
2023/04/07 12:51:39;;;;;;;8.00;2.63;;;;;;;;;;4999809;28;20030;-76
2023/04/07 12:54:04;;;;;;;8.63;2.85;;;;;;;;;;4999182;28;20053;-76
2023/04/07 12:56:30;;;;;;;12.38;3.28;;;;;;;;;;5019543;28;20125;-76
2023/04/07 12:58:55;;;;;;;9.98;2.70;;;;;;;;;;5018341;28;20033;-76
2023/04/07 13:01:21;;;;;;;7.05;2.60;;;;;;;;;;5018035;28;20033;-76
2023/04/07 13:03:46;;;;;;;5.22;2.60;;;;;;;;;;5000819;28;20041;-76
2023/04/07 13:06:12;;;;;;;6.60;2.58;;;;;;;;;;5019674;28;20100;-76
2023/04/07 13:08:38;;;;;;;9.55;2.80;;;;;;;;;;4990899;28;20571;-76
2023/04/07 13:11:04;;;;;;;6.32;2.47;;;;;;;;;;4998648;28;20037;-76
2023/04/07 13:13:30;;;;;;;5.50;2.53;;;;;;;;;;5014301;28;20073;-76
2023/04/07 13:15:56;;;;;;;5.78;2.42;;;;;;;;;;5017021;28;20026;-79
2023/04/07 13:18:21;;;;;;;11.57;2.95;;;;;;;;;;4987621;28;20426;-79
2023/04/07 13:20:46;;;;;;;12.15;2.70;;;;;;;;;;5007782;28;20407;-79
2023/04/07 13:23:12;;;;;;;7.63;2.65;;;;;;;;;;4997672;28;20022;-80
2023/04/07 13:25:38;;;;;;;7.43;2.45;;;;;;;;;;4994514;28;20057;-80
2023/04/07 13:28:03;;;;;;;7.15;2.67;;;;;;;;;;5008002;28;20029;-80
2023/04/07 13:30:29;;;;;;;10.93;2.90;;;;;;;;;;5013629;28;20034;-79
2023/04/07 13:32:54;;;;;;;6.80;2.50;;;;;;;;;;5013794;28;20598;-80
2023/04/07 13:35:20;;;;;;;7.03;2.65;;;;;;;;;;5018041;28;20437;-80
2023/04/07 13:37:45;;;;;;;8.02;2.92;;;;;;;;;;5004079;28;20022;-79
2023/04/07 13:40:13;;;;;;;7.90;2.70;;;;;;;;;;4993557;28;20460;-79
2023/04/07 13:42:39;;;;;;;7.13;2.53;;;;;;;;;;4992980;28;20048;-78
2023/04/07 13:45:05;;;;;;;8.88;2.83;;;;;;;;;;5016090;28;20034;-79
2023/04/07 13:47:33;;;;;;;9.20;3.05;;;;;;;;;;4990742;28;20038;-80
2023/04/07 13:49:59;;;;;;;6.97;2.95;;;;;;;;;;5004812;28;20022;-79
2023/04/07 13:52:26;;;;;;;10.93;2.95;;;;;;;;;;5016174;28;20049;-79
2023/04/07 13:54:51;;;;;;;8.90;2.85;;;;;;;;;;4989901;28;20057;-78
2023/04/07 13:57:19;;;;;;;13.52;2.80;;;;;;;;;;5012258;28;20375;-79
2023/04/07 13:59:50;;;;;;;11.40;3.10;;;;;;;;;;4993618;28;20037;-79
2023/04/07 14:02:16;;;;;;;7.95;2.78;;;;;;;;;;4996233;28;20026;-79
2023/04/07 14:04:42;;;;;;;8.48;2.67;;;;;;;;;;5020788;28;20029;-79
2023/04/07 14:07:07;;;;;;;11.70;3.05;;;;;;;;;;4993785;28;20025;-79
2023/04/07 14:09:33;;;;;;;7.93;2.58;;;;;;;;;;5015127;28;20025;-80
2023/04/07 14:11:58;;;;;;;11.30;3.08;;;;;;;;;;5008988;28;20035;-79
2023/04/07 14:14:23;;;;;;;7.45;2.90;;;;;;;;;;5009083;28;20528;-79
2023/04/07 14:16:52;;;;;;;9.40;3.05;;;;;;;;;;4993216;28;20117;-79
2023/04/07 14:19:23;;;;;;;6.90;3.10;;;;;;;;;;5002678;28;20340;-80
2023/04/07 14:21:49;;;;;;;10.10;3.60;;;;;;;;;;5004409;28;20115;-79
2023/04/07 14:24:15;;;;;;;13.10;2.88;;;;;;;;;;5007025;28;20489;-79
2023/04/07 14:26:42;;;;;;;7.68;3.05;;;;;;;;;;4990790;28;20022;-79
2023/04/07 14:29:07;;;;;;;9.60;3.50;;;;;;;;;;5010982;28;20034;-79
2023/04/07 14:31:33;;;;;;;8.75;3.40;;;;;;;;;;5012537;28;20582;-80
2023/04/07 14:33:58;;;;;;;6.20;3.03;;;;;;;;;;4991788;28;20461;-80
2023/04/07 14:36:24;;;;;;;12.90;3.35;;;;;;;;;;4991126;28;20482;-80
2023/04/07 14:38:49;;;;;;;9.38;3.40;;;;;;;;;;4990080;28;20026;-79
2023/04/07 14:41:15;;;;;;;10.35;3.50;;;;;;;;;;4986381;28;20029;-80